sensor_id;sensor_type;location;lat;lon;timestamp;pressure;altitude;pressure_sealevel;temperature;humidity
64792;BME280;51226;47.504;19.074;2023-05-09T00:02:53;101078.81;;;11.34;46.94
64792;BME280;51226;47.504;19.074;2023-05-09T00:05:56;101083.91;;;11.30;47.02
64792;BME280;51226;47.504;19.074;2023-05-09T00:08:59;101078.00;;;11.35;46.99
64792;BME280;51226;47.504;19.074;2023-05-09T00:12:02;101076.22;;;11.34;46.88
64792;BME280;51226;47.504;19.074;2023-05-09T00:15:06;101070.63;;;11.26;47.02
64792;BME280;51226;47.504;19.074;2023-05-09T00:18:11;101072.34;;;11.25;47.10
64792;BME280;51226;47.504;19.074;2023-05-09T00:21:16;101073.19;;;11.24;47.26
64792;BME280;51226;47.504;19.074;2023-05-09T00:24:18;101070.69;;;11.27;47.21
64792;BME280;51226;47.504;19.074;2023-05-09T00:27:21;101067.81;;;11.21;47.42
64792;BME280;51226;47.504;19.074;2023-05-09T00:30:23;101066.53;;;11.31;47.02
64792;BME280;51226;47.504;19.074;2023-05-09T00:33:26;101060.47;;;11.32;47.26
64792;BME280;51226;47.504;19.074;2023-05-09T00:36:29;101056.22;;;11.34;47.03
64792;BME280;51226;47.504;19.074;2023-05-09T00:39:31;101063.56;;;11.23;47.22
64792;BME280;51226;47.504;19.074;2023-05-09T00:42:34;101058.97;;;11.18;47.77
64792;BME280;51226;47.504;19.074;2023-05-09T00:45:37;101052.97;;;11.20;47.35
64792;BME280;51226;47.504;19.074;2023-05-09T00:48:39;101058.03;;;11.17;47.41
64792;BME280;51226;47.504;19.074;2023-05-09T00:51:42;101058.75;;;11.13;47.34
64792;BME280;51226;47.504;19.074;2023-05-09T00:54:45;101058.44;;;11.07;47.50
64792;BME280;51226;47.504;19.074;2023-05-09T00:57:47;101059.06;;;11.01;47.85
64792;BME280;51226;47.504;19.074;2023-05-09T01:00:50;101063.75;;;11.08;47.58
64792;BME280;51226;47.504;19.074;2023-05-09T01:03:53;101054.25;;;11.10;47.66
64792;BME280;51226;47.504;19.074;2023-05-09T01:10:05;101054.56;;;11.17;47.58
64792;BME280;51226;47.504;19.074;2023-05-09T01:16:22;101066.19;;;11.05;47.73
64792;BME280;51226;47.504;19.074;2023-05-09T01:32:42;101050.06;;;10.77;48.60
64792;BME280;51226;47.504;19.074;2023-05-09T01:35:47;101053.22;;;10.69;48.89
64792;BME280;51226;47.504;19.074;2023-05-09T01:38:51;101059.16;;;10.67;49.05
64792;BME280;51226;47.504;19.074;2023-05-09T01:41:54;101053.94;;;10.67;49.04
64792;BME280;51226;47.504;19.074;2023-05-09T01:44:58;101053.94;;;10.67;49.00
64792;BME280;51226;47.504;19.074;2023-05-09T01:48:01;101044.69;;;10.55;49.33
64792;BME280;51226;47.504;19.074;2023-05-09T01:51:04;101049.91;;;10.55;49.48
64792;BME280;51226;47.504;19.074;2023-05-09T01:54:07;101040.87;;;10.49;49.48
64792;BME280;51226;47.504;19.074;2023-05-09T01:57:11;101040.00;;;10.48;49.55
64792;BME280;51226;47.504;19.074;2023-05-09T02:00:14;101034.88;;;10.50;49.48
64792;BME280;51226;47.504;19.074;2023-05-09T02:03:18;101040.81;;;10.47;49.65
64792;BME280;51226;47.504;19.074;2023-05-09T02:06:22;101041.56;;;10.45;49.73
64792;BME280;51226;47.504;19.074;2023-05-09T02:09:25;101039.63;;;10.41;49.72
64792;BME280;51226;47.504;19.074;2023-05-09T02:12:28;101033.28;;;10.35;49.78
64792;BME280;51226;47.504;19.074;2023-05-09T02:15:31;101033.22;;;10.34;49.81
64792;BME280;51226;47.504;19.074;2023-05-09T02:18:34;101032.25;;;10.32;50.11
64792;BME280;51226;47.504;19.074;2023-05-09T02:21:38;101024.31;;;10.30;50.07
64792;BME280;51226;47.504;19.074;2023-05-09T02:24:41;101030.84;;;10.22;50.31
64792;BME280;51226;47.504;19.074;2023-05-09T02:27:45;101023.47;;;10.13;50.45
64792;BME280;51226;47.504;19.074;2023-05-09T02:30:49;101023.41;;;10.12;50.58
64792;BME280;51226;47.504;19.074;2023-05-09T02:33:52;101026.94;;;10.12;50.83
64792;BME280;51226;47.504;19.074;2023-05-09T02:36:56;101027.22;;;10.18;50.69
64792;BME280;51226;47.504;19.074;2023-05-09T02:39:58;101017.47;;;10.14;50.60
64792;BME280;51226;47.504;19.074;2023-05-09T02:43:02;101022.28;;;10.07;50.88
64792;BME280;51226;47.504;19.074;2023-05-09T02:46:05;101018.72;;;10.05;51.24
64792;BME280;51226;47.504;19.074;2023-05-09T02:49:08;101023.16;;;10.07;51.25
64792;BME280;51226;47.504;19.074;2023-05-09T02:52:16;101011.03;;;10.08;51.57
64792;BME280;51226;47.504;19.074;2023-05-09T02:55:19;101010.81;;;10.03;51.74
64792;BME280;51226;47.504;19.074;2023-05-09T02:58:21;101019.16;;;9.96;52.08
64792;BME280;51226;47.504;19.074;2023-05-09T03:01:24;101023.91;;;10.05;52.09
64792;BME280;51226;47.504;19.074;2023-05-09T03:04:26;101016.75;;;10.00;52.39
64792;BME280;51226;47.504;19.074;2023-05-09T03:07:29;101017.44;;;9.96;52.58
64792;BME280;51226;47.504;19.074;2023-05-09T03:10:32;101018.78;;;10.06;52.61
64792;BME280;51226;47.504;19.074;2023-05-09T03:13:35;101013.91;;;10.12;52.81
64792;BME280;51226;47.504;19.074;2023-05-09T03:16:38;101016.63;;;10.15;52.62
64792;BME280;51226;47.504;19.074;2023-05-09T03:19:41;101012.25;;;10.14;52.42
64792;BME280;51226;47.504;19.074;2023-05-09T03:22:44;101009.63;;;10.14;52.45
64792;BME280;51226;47.504;19.074;2023-05-09T03:25:47;101005.34;;;9.98;52.81
64792;BME280;51226;47.504;19.074;2023-05-09T03:28:50;101011.50;;;9.99;52.65
64792;BME280;51226;47.504;19.074;2023-05-09T03:31:54;101012.56;;;9.86;53.00
64792;BME280;51226;47.504;19.074;2023-05-09T03:34:57;101015.69;;;9.97;52.88
64792;BME280;51226;47.504;19.074;2023-05-09T03:38:00;101018.09;;;9.92;52.90
64792;BME280;51226;47.504;19.074;2023-05-09T03:41:03;101026.13;;;9.97;52.90
64792;BME280;51226;47.504;19.074;2023-05-09T03:44:07;101018.31;;;9.97;52.89
64792;BME280;51226;47.504;19.074;2023-05-09T03:47:09;101030.37;;;9.95;53.02
64792;BME280;51226;47.504;19.074;2023-05-09T03:50:12;101031.78;;;9.88;53.18
64792;BME280;51226;47.504;19.074;2023-05-09T03:53:15;101026.22;;;9.82;53.12
64792;BME280;51226;47.504;19.074;2023-05-09T03:56:19;101034.88;;;9.81;53.43
64792;BME280;51226;47.504;19.074;2023-05-09T03:59:22;101035.19;;;9.87;52.99
64792;BME280;51226;47.504;19.074;2023-05-09T04:02:25;101034.47;;;9.90;52.75
64792;BME280;51226;47.504;19.074;2023-05-09T04:05:29;101033.87;;;9.95;52.66
64792;BME280;51226;47.504;19.074;2023-05-09T04:08:32;101026.87;;;9.94;52.68
64792;BME280;51226;47.504;19.074;2023-05-09T04:11:35;101027.53;;;9.90;52.82
64792;BME280;51226;47.504;19.074;2023-05-09T04:14:39;101035.75;;;9.98;52.63
64792;BME280;51226;47.504;19.074;2023-05-09T04:17:42;101034.19;;;10.01;52.58
64792;BME280;51226;47.504;19.074;2023-05-09T04:20:45;101028.16;;;10.02;52.77
64792;BME280;51226;47.504;19.074;2023-05-09T04:23:48;101031.75;;;10.05;53.01
64792;BME280;51226;47.504;19.074;2023-05-09T04:26:51;101030.66;;;10.17;52.49
64792;BME280;51226;47.504;19.074;2023-05-09T04:29:55;101033.37;;;10.20;54.59
64792;BME280;51226;47.504;19.074;2023-05-09T04:32:57;101027.53;;;10.25;54.09
64792;BME280;51226;47.504;19.074;2023-05-09T04:36:01;101031.94;;;10.26;52.52
64792;BME280;51226;47.504;19.074;2023-05-09T04:39:04;101032.91;;;10.28;53.07
64792;BME280;51226;47.504;19.074;2023-05-09T04:42:07;101026.38;;;10.36;52.55
64792;BME280;51226;47.504;19.074;2023-05-09T04:45:10;101037.00;;;10.41;52.16
64792;BME280;51226;47.504;19.074;2023-05-09T04:48:13;101035.31;;;10.41;51.96
64792;BME280;51226;47.504;19.074;2023-05-09T04:51:16;101039.41;;;10.36;52.05
64792;BME280;51226;47.504;19.074;2023-05-09T04:54:19;101038.66;;;10.38;52.39
64792;BME280;51226;47.504;19.074;2023-05-09T04:57:25;101035.31;;;10.41;51.76
64792;BME280;51226;47.504;19.074;2023-05-09T05:00:28;101040.81;;;10.47;51.97
64792;BME280;51226;47.504;19.074;2023-05-09T05:03:32;101040.50;;;10.59;51.40
64792;BME280;51226;47.504;19.074;2023-05-09T05:06:35;101040.31;;;10.54;51.50
64792;BME280;51226;47.504;19.074;2023-05-09T05:09:38;101036.78;;;10.54;51.61
64792;BME280;51226;47.504;19.074;2023-05-09T05:12:41;101048.81;;;10.68;51.16
64792;BME280;51226;47.504;19.074;2023-05-09T05:15:44;101044.06;;;10.79;50.71
64792;BME280;51226;47.504;19.074;2023-05-09T05:18:47;101044.47;;;10.69;50.64
64792;BME280;51226;47.504;19.074;2023-05-09T05:21:51;101045.22;;;10.66;51.74
64792;BME280;51226;47.504;19.074;2023-05-09T05:24:54;101045.81;;;10.79;51.29
64792;BME280;51226;47.504;19.074;2023-05-09T05:27:57;101044.06;;;10.97;50.38
64792;BME280;51226;47.504;19.074;2023-05-09T05:31:00;101036.31;;;10.99;50.66
64792;BME280;51226;47.504;19.074;2023-05-09T05:34:03;101049.44;;;11.00;50.56
64792;BME280;51226;47.504;19.074;2023-05-09T05:37:06;101042.84;;;11.08;50.51
64792;BME280;51226;47.504;19.074;2023-05-09T05:40:09;101038.19;;;11.21;50.58
64792;BME280;51226;47.504;19.074;2023-05-09T05:43:12;101032.03;;;11.38;49.64
64792;BME280;51226;47.504;19.074;2023-05-09T05:46:15;101025.81;;;11.56;49.26
64792;BME280;51226;47.504;19.074;2023-05-09T05:49:18;101027.56;;;11.55;48.92
64792;BME280;51226;47.504;19.074;2023-05-09T05:52:21;101031.25;;;11.60;49.23
64792;BME280;51226;47.504;19.074;2023-05-09T05:55:24;101030.84;;;11.71;48.75
64792;BME280;51226;47.504;19.074;2023-05-09T05:58:26;101038.53;;;11.87;48.73
64792;BME280;51226;47.504;19.074;2023-05-09T06:01:29;101037.44;;;12.01;48.29
64792;BME280;51226;47.504;19.074;2023-05-09T06:04:32;101035.91;;;12.07;48.20
64792;BME280;51226;47.504;19.074;2023-05-09T06:07:35;101027.22;;;12.08;48.44
64792;BME280;51226;47.504;19.074;2023-05-09T06:10:38;101034.75;;;12.21;48.03
64792;BME280;51226;47.504;19.074;2023-05-09T06:13:40;101037.75;;;12.30;47.58
64792;BME280;51226;47.504;19.074;2023-05-09T06:16:45;101038.56;;;12.29;47.99
64792;BME280;51226;47.504;19.074;2023-05-09T06:19:48;101039.72;;;12.57;47.54
64792;BME280;51226;47.504;19.074;2023-05-09T06:22:52;101041.13;;;12.49;48.72
64792;BME280;51226;47.504;19.074;2023-05-09T06:25:55;101040.78;;;12.62;47.85
64792;BME280;51226;47.504;19.074;2023-05-09T06:28:58;101034.22;;;12.72;48.16
64792;BME280;51226;47.504;19.074;2023-05-09T06:32:01;101028.91;;;12.93;47.51
64792;BME280;51226;47.504;19.074;2023-05-09T06:35:04;101027.91;;;13.12;47.55
64792;BME280;51226;47.504;19.074;2023-05-09T06:38:07;101023.69;;;13.38;49.04
64792;BME280;51226;47.504;19.074;2023-05-09T06:41:09;101022.94;;;13.66;47.62
64792;BME280;51226;47.504;19.074;2023-05-09T06:44:12;101017.97;;;14.00;45.27
64792;BME280;51226;47.504;19.074;2023-05-09T06:47:15;101018.34;;;14.11;45.74
64792;BME280;51226;47.504;19.074;2023-05-09T06:50:20;101015.25;;;14.22;45.25
64792;BME280;51226;47.504;19.074;2023-05-09T06:53:23;101013.53;;;14.50;45.42
64792;BME280;51226;47.504;19.074;2023-05-09T06:56:25;101012.59;;;14.75;44.11
64792;BME280;51226;47.504;19.074;2023-05-09T06:59:28;101004.56;;;14.99;43.60
64792;BME280;51226;47.504;19.074;2023-05-09T07:02:31;101005.19;;;15.21;41.12
64792;BME280;51226;47.504;19.074;2023-05-09T07:05:34;101007.34;;;15.34;42.06
64792;BME280;51226;47.504;19.074;2023-05-09T07:08:37;100996.19;;;15.43;41.48
64792;BME280;51226;47.504;19.074;2023-05-09T07:11:40;100993.03;;;15.56;40.54
64792;BME280;51226;47.504;19.074;2023-05-09T07:14:42;100991.34;;;15.89;40.03
64792;BME280;51226;47.504;19.074;2023-05-09T07:17:45;100992.22;;;15.89;39.96
64792;BME280;51226;47.504;19.074;2023-05-09T07:20:47;100999.34;;;15.95;42.03
64792;BME280;51226;47.504;19.074;2023-05-09T07:23:50;100988.53;;;16.18;42.21
64792;BME280;51226;47.504;19.074;2023-05-09T07:26:53;100975.19;;;16.46;39.77
64792;BME280;51226;47.504;19.074;2023-05-09T07:29:59;100972.22;;;16.69;39.21
64792;BME280;51226;47.504;19.074;2023-05-09T07:33:01;100980.72;;;16.97;38.67
64792;BME280;51226;47.504;19.074;2023-05-09T07:36:04;100966.19;;;17.14;38.34
64792;BME280;51226;47.504;19.074;2023-05-09T07:39:06;100964.62;;;17.24;38.22
64792;BME280;51226;47.504;19.074;2023-05-09T07:42:09;100967.03;;;17.57;37.15
64792;BME280;51226;47.504;19.074;2023-05-09T07:45:12;100963.09;;;17.86;37.96
64792;BME280;51226;47.504;19.074;2023-05-09T07:48:15;100954.91;;;18.21;35.84
64792;BME280;51226;47.504;19.074;2023-05-09T07:51:17;100966.78;;;18.49;35.41
64792;BME280;51226;47.504;19.074;2023-05-09T07:54:20;100951.09;;;18.58;36.68
64792;BME280;51226;47.504;19.074;2023-05-09T07:57:23;100951.66;;;18.98;34.30
64792;BME280;51226;47.504;19.074;2023-05-09T08:00:26;100946.56;;;19.14;35.72
64792;BME280;51226;47.504;19.074;2023-05-09T08:03:32;100935.22;;;19.25;35.52
64792;BME280;51226;47.504;19.074;2023-05-09T08:06:35;100937.53;;;19.76;33.16
64792;BME280;51226;47.504;19.074;2023-05-09T08:09:38;100935.22;;;20.11;33.73
64792;BME280;51226;47.504;19.074;2023-05-09T08:12:41;100928.28;;;20.33;32.96
64792;BME280;51226;47.504;19.074;2023-05-09T08:15:43;100930.31;;;20.71;31.12
64792;BME280;51226;47.504;19.074;2023-05-09T08:18:46;100931.28;;;20.90;32.64
64792;BME280;51226;47.504;19.074;2023-05-09T08:21:49;100919.00;;;21.26;31.66
64792;BME280;51226;47.504;19.074;2023-05-09T08:24:52;100921.78;;;21.73;30.90
64792;BME280;51226;47.504;19.074;2023-05-09T08:27:54;100925.34;;;22.02;30.29
64792;BME280;51226;47.504;19.074;2023-05-09T08:30:57;100912.84;;;22.60;28.13
64792;BME280;51226;47.504;19.074;2023-05-09T08:34:00;100914.56;;;22.86;29.25
64792;BME280;51226;47.504;19.074;2023-05-09T08:37:02;100903.75;;;23.26;27.20
64792;BME280;51226;47.504;19.074;2023-05-09T08:40:06;100909.66;;;23.66;27.45
64792;BME280;51226;47.504;19.074;2023-05-09T08:43:09;100907.87;;;23.68;27.03
64792;BME280;51226;47.504;19.074;2023-05-09T08:46:16;100899.72;;;23.93;26.66
64792;BME280;51226;47.504;19.074;2023-05-09T08:49:37;100907.47;;;24.21;26.24
64792;BME280;51226;47.504;19.074;2023-05-09T08:52:41;100900.28;;;24.29;28.16
64792;BME280;51226;47.504;19.074;2023-05-09T08:55:44;100895.34;;;24.76;27.98
64792;BME280;51226;47.504;19.074;2023-05-09T08:58:47;100896.84;;;24.95;27.19
64792;BME280;51226;47.504;19.074;2023-05-09T09:01:50;100886.69;;;25.22;26.38
64792;BME280;51226;47.504;19.074;2023-05-09T09:04:54;100887.34;;;25.41;24.34
64792;BME280;51226;47.504;19.074;2023-05-09T09:07:57;100884.47;;;25.54;25.38
64792;BME280;51226;47.504;19.074;2023-05-09T09:11:01;100886.75;;;25.78;26.12
64792;BME280;51226;47.504;19.074;2023-05-09T09:14:28;100870.78;;;26.25;23.66
64792;BME280;51226;47.504;19.074;2023-05-09T09:17:27;100867.56;;;26.51;22.74
64792;BME280;51226;47.504;19.074;2023-05-09T09:20:32;100865.91;;;26.46;24.64
64792;BME280;51226;47.504;19.074;2023-05-09T09:23:36;100870.94;;;26.64;24.27
64792;BME280;51226;47.504;19.074;2023-05-09T09:26:46;100870.72;;;27.15;22.86
64792;BME280;51226;47.504;19.074;2023-05-09T09:29:49;100867.50;;;27.40;21.11
64792;BME280;51226;47.504;19.074;2023-05-09T09:32:52;100873.09;;;27.67;22.57
64792;BME280;51226;47.504;19.074;2023-05-09T09:35:57;100872.88;;;27.75;22.85
64792;BME280;51226;47.504;19.074;2023-05-09T09:39:02;100865.41;;;27.87;23.17
64792;BME280;51226;47.504;19.074;2023-05-09T09:42:10;100867.13;;;27.90;22.39
64792;BME280;51226;47.504;19.074;2023-05-09T09:45:17;100871.53;;;26.78;24.28
64792;BME280;51226;47.504;19.074;2023-05-09T09:48:24;100865.25;;;26.79;24.21
64792;BME280;51226;47.504;19.074;2023-05-09T09:51:27;100869.12;;;27.07;23.96
64792;BME280;51226;47.504;19.074;2023-05-09T09:54:30;100863.81;;;27.44;21.23
64792;BME280;51226;47.504;19.074;2023-05-09T09:57:34;100858.22;;;26.75;23.81
64792;BME280;51226;47.504;19.074;2023-05-09T10:00:41;100876.72;;;25.91;23.28
64792;BME280;51226;47.504;19.074;2023-05-09T10:03:46;100861.50;;;24.78;24.97
64792;BME280;51226;47.504;19.074;2023-05-09T10:07:23;100868.53;;;24.04;26.36
64792;BME280;51226;47.504;19.074;2023-05-09T10:10:19;100846.56;;;24.65;24.30
64792;BME280;51226;47.504;19.074;2023-05-09T10:13:21;100844.97;;;24.47;25.48
64792;BME280;51226;47.504;19.074;2023-05-09T10:16:24;100849.75;;;24.15;25.13
64792;BME280;51226;47.504;19.074;2023-05-09T10:19:44;100829.59;;;23.91;25.71
64792;BME280;51226;47.504;19.074;2023-05-09T10:22:48;100843.59;;;24.10;27.40
64792;BME280;51226;47.504;19.074;2023-05-09T10:26:07;100843.31;;;24.35;27.47
64792;BME280;51226;47.504;19.074;2023-05-09T10:29:11;100845.75;;;25.23;25.69
64792;BME280;51226;47.504;19.074;2023-05-09T10:32:17;100840.59;;;25.68;24.01
64792;BME280;51226;47.504;19.074;2023-05-09T10:35:25;100837.03;;;25.09;23.93
64792;BME280;51226;47.504;19.074;2023-05-09T10:38:29;100832.63;;;25.65;22.27
64792;BME280;51226;47.504;19.074;2023-05-09T10:41:32;100833.66;;;25.58;22.80
64792;BME280;51226;47.504;19.074;2023-05-09T10:44:35;100828.88;;;24.57;25.57
64792;BME280;51226;47.504;19.074;2023-05-09T10:47:39;100832.28;;;23.80;25.15
64792;BME280;51226;47.504;19.074;2023-05-09T10:50:42;100828.38;;;23.21;26.94
64792;BME280;51226;47.504;19.074;2023-05-09T10:53:47;100827.53;;;23.16;26.92
64792;BME280;51226;47.504;19.074;2023-05-09T10:56:57;100834.09;;;23.78;27.31
64792;BME280;51226;47.504;19.074;2023-05-09T11:00:00;100818.69;;;24.14;24.91
64792;BME280;51226;47.504;19.074;2023-05-09T11:03:05;100819.81;;;24.71;24.82
64792;BME280;51226;47.504;19.074;2023-05-09T11:06:11;100819.78;;;25.35;24.15
64792;BME280;51226;47.504;19.074;2023-05-09T11:09:35;100826.97;;;25.82;26.79
64792;BME280;51226;47.504;19.074;2023-05-09T11:12:55;100823.03;;;26.05;25.26
64792;BME280;51226;47.504;19.074;2023-05-09T11:19:03;100810.13;;;24.60;25.74
64792;BME280;51226;47.504;19.074;2023-05-09T11:22:14;100807.53;;;24.57;24.87
64792;BME280;51226;47.504;19.074;2023-05-09T11:25:23;100801.06;;;24.01;24.97
64792;BME280;51226;47.504;19.074;2023-05-09T11:28:27;100787.66;;;24.05;26.08
64792;BME280;51226;47.504;19.074;2023-05-09T11:31:30;100792.94;;;24.83;24.25
64792;BME280;51226;47.504;19.074;2023-05-09T11:34:33;100793.53;;;25.60;25.79
64792;BME280;51226;47.504;19.074;2023-05-09T11:37:38;100788.59;;;25.37;23.81
64792;BME280;51226;47.504;19.074;2023-05-09T11:40:41;100789.34;;;24.86;25.04
64792;BME280;51226;47.504;19.074;2023-05-09T11:43:44;100786.97;;;25.25;23.45
64792;BME280;51226;47.504;19.074;2023-05-09T11:46:47;100775.16;;;25.43;23.64
64792;BME280;51226;47.504;19.074;2023-05-09T11:49:50;100785.94;;;24.76;23.92
64792;BME280;51226;47.504;19.074;2023-05-09T11:52:55;100777.88;;;24.11;24.55
64792;BME280;51226;47.504;19.074;2023-05-09T11:56:00;100777.47;;;23.59;24.90
64792;BME280;51226;47.504;19.074;2023-05-09T11:59:03;100781.44;;;23.01;27.61
64792;BME280;51226;47.504;19.074;2023-05-09T12:02:06;100778.16;;;22.57;27.67
64792;BME280;51226;47.504;19.074;2023-05-09T12:05:09;100783.31;;;22.85;27.71
64792;BME280;51226;47.504;19.074;2023-05-09T12:08:13;100766.06;;;23.45;27.07
64792;BME280;51226;47.504;19.074;2023-05-09T12:11:16;100765.72;;;23.83;27.84
64792;BME280;51226;47.504;19.074;2023-05-09T12:14:29;100758.75;;;24.46;24.88
64792;BME280;51226;47.504;19.074;2023-05-09T12:17:36;100754.94;;;24.66;26.40
64792;BME280;51226;47.504;19.074;2023-05-09T12:20:42;100750.16;;;24.91;25.79
64792;BME280;51226;47.504;19.074;2023-05-09T12:23:45;100747.81;;;24.68;26.59
64792;BME280;51226;47.504;19.074;2023-05-09T12:26:53;100742.50;;;24.66;26.85
64792;BME280;51226;47.504;19.074;2023-05-09T12:29:56;100751.09;;;24.20;26.51
64792;BME280;51226;47.504;19.074;2023-05-09T12:32:59;100750.62;;;23.79;27.12
64792;BME280;51226;47.504;19.074;2023-05-09T12:39:08;100732.44;;;24.18;27.24
64792;BME280;51226;47.504;19.074;2023-05-09T12:42:14;100745.22;;;24.63;26.57
64792;BME280;51226;47.504;19.074;2023-05-09T12:45:31;100736.88;;;24.19;27.09
64792;BME280;51226;47.504;19.074;2023-05-09T12:48:38;100733.06;;;23.60;27.28
64792;BME280;51226;47.504;19.074;2023-05-09T12:51:46;100723.72;;;23.17;26.81
64792;BME280;51226;47.504;19.074;2023-05-09T12:54:50;100719.47;;;22.88;27.05
64792;BME280;51226;47.504;19.074;2023-05-09T12:58:00;100713.59;;;22.26;29.68
64792;BME280;51226;47.504;19.074;2023-05-09T13:01:04;100709.34;;;21.85;30.50
64792;BME280;51226;47.504;19.074;2023-05-09T13:04:06;100716.50;;;21.52;30.98
64792;BME280;51226;47.504;19.074;2023-05-09T13:07:11;100711.19;;;21.31;31.23
64792;BME280;51226;47.504;19.074;2023-05-09T13:10:15;100704.13;;;21.29;30.09
64792;BME280;51226;47.504;19.074;2023-05-09T13:13:20;100700.59;;;21.27;30.12
64792;BME280;51226;47.504;19.074;2023-05-09T13:16:27;100706.78;;;21.14;30.16
64792;BME280;51226;47.504;19.074;2023-05-09T13:19:30;100703.25;;;21.03;30.42
64792;BME280;51226;47.504;19.074;2023-05-09T13:22:34;100689.97;;;21.23;30.85
64792;BME280;51226;47.504;19.074;2023-05-09T13:25:38;100687.28;;;21.38;30.10
64792;BME280;51226;47.504;19.074;2023-05-09T13:28:40;100692.62;;;21.24;32.21
64792;BME280;51226;47.504;19.074;2023-05-09T13:31:43;100694.41;;;20.88;33.07
64792;BME280;51226;47.504;19.074;2023-05-09T13:34:46;100692.62;;;20.72;31.53
64792;BME280;51226;47.504;19.074;2023-05-09T13:37:49;100689.91;;;20.50;33.08
64792;BME280;51226;47.504;19.074;2023-05-09T13:40:52;100681.94;;;20.43;33.35
64792;BME280;51226;47.504;19.074;2023-05-09T13:43:55;100684.59;;;20.60;32.50
64792;BME280;51226;47.504;19.074;2023-05-09T13:46:57;100670.50;;;20.73;31.51
64792;BME280;51226;47.504;19.074;2023-05-09T13:50:01;100679.38;;;20.75;32.25
64792;BME280;51226;47.504;19.074;2023-05-09T13:53:05;100681.06;;;20.58;33.85
64792;BME280;51226;47.504;19.074;2023-05-09T13:56:08;100665.19;;;20.50;33.67
64792;BME280;51226;47.504;19.074;2023-05-09T13:59:10;100677.50;;;20.32;33.41
64792;BME280;51226;47.504;19.074;2023-05-09T14:02:13;100665.09;;;20.11;34.35
64792;BME280;51226;47.504;19.074;2023-05-09T14:05:16;100669.41;;;19.91;34.65
64792;BME280;51226;47.504;19.074;2023-05-09T14:08:19;100657.03;;;19.85;34.51
64792;BME280;51226;47.504;19.074;2023-05-09T14:11:22;100653.50;;;19.88;33.95
64792;BME280;51226;47.504;19.074;2023-05-09T14:14:26;100644.66;;;19.78;33.84
64792;BME280;51226;47.504;19.074;2023-05-09T14:17:29;100636.75;;;19.90;32.83
64792;BME280;51226;47.504;19.074;2023-05-09T14:20:32;100642.81;;;19.72;34.15
64792;BME280;51226;47.504;19.074;2023-05-09T14:23:38;100638.38;;;19.63;35.42
64792;BME280;51226;47.504;19.074;2023-05-09T14:26:41;100634.94;;;19.78;33.42
64792;BME280;51226;47.504;19.074;2023-05-09T14:29:44;100632.38;;;19.98;33.52
64792;BME280;51226;47.504;19.074;2023-05-09T14:32:47;100631.59;;;20.33;33.01
64792;BME280;51226;47.504;19.074;2023-05-09T14:35:50;100631.59;;;20.38;32.12
64792;BME280;51226;47.504;19.074;2023-05-09T14:38:53;100634.22;;;20.26;31.67
64792;BME280;51226;47.504;19.074;2023-05-09T14:41:55;100634.16;;;20.07;32.45
64792;BME280;51226;47.504;19.074;2023-05-09T14:44:58;100631.44;;;19.87;34.14
64792;BME280;51226;47.504;19.074;2023-05-09T14:48:01;100632.22;;;19.71;33.39
64792;BME280;51226;47.504;19.074;2023-05-09T14:51:06;100627.81;;;19.65;33.05
64792;BME280;51226;47.504;19.074;2023-05-09T14:54:09;100622.44;;;19.56;34.79
64792;BME280;51226;47.504;19.074;2023-05-09T14:57:12;100625.09;;;19.51;34.84
64792;BME280;51226;47.504;19.074;2023-05-09T15:00:14;100618.00;;;19.46;34.66
64792;BME280;51226;47.504;19.074;2023-05-09T15:03:23;100617.06;;;19.31;35.49
64792;BME280;51226;47.504;19.074;2023-05-09T15:06:26;100616.94;;;19.19;35.59
64792;BME280;51226;47.504;19.074;2023-05-09T15:09:30;100608.06;;;19.04;35.07
64792;BME280;51226;47.504;19.074;2023-05-09T15:12:33;100619.47;;;18.99;35.48
64792;BME280;51226;47.504;19.074;2023-05-09T15:15:35;100605.34;;;18.97;35.60
64792;BME280;51226;47.504;19.074;2023-05-09T15:18:41;100606.34;;;19.16;34.79
64792;BME280;51226;47.504;19.074;2023-05-09T15:21:47;100600.19;;;19.14;36.22
64792;BME280;51226;47.504;19.074;2023-05-09T15:24:49;100604.62;;;19.24;36.12
64792;BME280;51226;47.504;19.074;2023-05-09T15:27:52;100593.19;;;19.22;35.12
64792;BME280;51226;47.504;19.074;2023-05-09T15:30:55;100595.81;;;19.20;35.47
64792;BME280;51226;47.504;19.074;2023-05-09T15:33:59;100585.25;;;19.25;35.85
64792;BME280;51226;47.504;19.074;2023-05-09T15:37:02;100584.41;;;19.32;34.53
64792;BME280;51226;47.504;19.074;2023-05-09T15:40:05;100583.56;;;19.35;35.12
64792;BME280;51226;47.504;19.074;2023-05-09T15:43:09;100584.44;;;19.35;35.47
64792;BME280;51226;47.504;19.074;2023-05-09T15:46:12;100579.13;;;19.32;34.57
64792;BME280;51226;47.504;19.074;2023-05-09T15:49:14;100583.47;;;19.18;35.49
64792;BME280;51226;47.504;19.074;2023-05-09T15:52:18;100583.44;;;19.12;36.32
64792;BME280;51226;47.504;19.074;2023-05-09T15:55:20;100579.97;;;19.25;34.69
64792;BME280;51226;47.504;19.074;2023-05-09T15:58:24;100570.22;;;19.13;36.34
64792;BME280;51226;47.504;19.074;2023-05-09T16:01:27;100566.63;;;19.05;37.17
64792;BME280;51226;47.504;19.074;2023-05-09T16:04:30;100562.19;;;18.99;37.18
64792;BME280;51226;47.504;19.074;2023-05-09T16:07:33;100564.81;;;18.95;37.69
64792;BME280;51226;47.504;19.074;2023-05-09T16:10:37;100555.19;;;19.07;35.07
64792;BME280;51226;47.504;19.074;2023-05-09T16:13:39;100554.28;;;18.98;36.38
64792;BME280;51226;47.504;19.074;2023-05-09T16:16:43;100564.84;;;18.98;35.63